sensor_id;sensor_type;location;lat;lon;timestamp;pressure;altitude;pressure_sealevel;temperature;humidity
52291;BME280;39663;45.432;28.050;2023-02-15T00:00:29;102435.31;;;5.44;44.61
52291;BME280;39663;45.432;28.050;2023-02-15T00:01:06;102434.93;;;6.04;44.01
52291;BME280;39663;45.432;28.050;2023-02-15T00:01:38;102434.55;;;5.87;44.15
52291;BME280;39663;45.432;28.050;2023-02-15T00:02:09;102436.58;;;6.14;43.84
52291;BME280;39663;45.432;28.050;2023-02-15T00:02:41;102435.89;;;6.22;44.62
52291;BME280;39663;45.432;28.050;2023-02-15T00:03:12;102438.54;;;6.15;43.39
52291;BME280;39663;45.432;28.050;2023-02-15T00:03:44;102439.12;;;6.06;43.81
52291;BME280;39663;45.432;28.050;2023-02-15T00:04:17;102438.15;;;6.83;44.03
52291;BME280;39663;45.432;28.050;2023-02-15T00:04:49;102438.24;;;6.83;42.85
52291;BME280;39663;45.432;28.050;2023-02-15T00:05:20;102439.20;;;6.69;41.94
52291;BME280;39663;45.432;28.050;2023-02-15T00:05:52;102440.77;;;6.22;44.55
52291;BME280;39663;45.432;28.050;2023-02-15T00:06:24;102440.87;;;5.85;44.69
52291;BME280;39663;45.432;28.050;2023-02-15T00:06:55;102440.25;;;6.30;43.18
52291;BME280;39663;45.432;28.050;2023-02-15T00:07:27;102444.39;;;6.46;45.18
52291;BME280;39663;45.432;28.050;2023-02-15T00:07:58;102444.54;;;6.03;43.05
52291;BME280;39663;45.432;28.050;2023-02-15T00:08:30;102442.90;;;6.71;43.60
52291;BME280;39663;45.432;28.050;2023-02-15T00:09:03;102438.43;;;5.80;43.90
52291;BME280;39663;45.432;28.050;2023-02-15T00:09:34;102440.50;;;6.37;43.94
52291;BME280;39663;45.432;28.050;2023-02-15T00:10:07;102437.01;;;6.51;43.02
52291;BME280;39663;45.432;28.050;2023-02-15T00:10:39;102445.09;;;6.47;42.68
52291;BME280;39663;45.432;28.050;2023-02-15T00:11:12;102444.64;;;5.45;45.17
52291;BME280;39663;45.432;28.050;2023-02-15T00:11:44;102436.94;;;5.14;45.47
52291;BME280;39663;45.432;28.050;2023-02-15T00:12:16;102439.70;;;5.87;43.95
52291;BME280;39663;45.432;28.050;2023-02-15T00:12:47;102439.30;;;5.30;44.30
52291;BME280;39663;45.432;28.050;2023-02-15T00:13:19;102437.05;;;5.12;45.91
52291;BME280;39663;45.432;28.050;2023-02-15T00:13:50;102439.81;;;5.68;44.63
52291;BME280;39663;45.432;28.050;2023-02-15T00:14:23;102440.14;;;5.71;43.68
52291;BME280;39663;45.432;28.050;2023-02-15T00:14:55;102437.47;;;5.65;44.05
52291;BME280;39663;45.432;28.050;2023-02-15T00:15:26;102441.80;;;6.30;45.56
52291;BME280;39663;45.432;28.050;2023-02-15T00:16:02;102438.62;;;6.69;43.66
52291;BME280;39663;45.432;28.050;2023-02-15T00:16:34;102445.42;;;6.67;43.99
52291;BME280;39663;45.432;28.050;2023-02-15T00:17:06;102435.34;;;5.89;43.27
52291;BME280;39663;45.432;28.050;2023-02-15T00:17:37;102443.79;;;6.25;43.97
52291;BME280;39663;45.432;28.050;2023-02-15T00:18:09;102447.44;;;6.22;44.22
52291;BME280;39663;45.432;28.050;2023-02-15T00:18:40;102445.15;;;5.92;43.46
52291;BME280;39663;45.432;28.050;2023-02-15T00:19:13;102443.80;;;5.80;43.80
52291;BME280;39663;45.432;28.050;2023-02-15T00:19:45;102449.10;;;5.87;43.34
52291;BME280;39663;45.432;28.050;2023-02-15T00:20:17;102446.81;;;6.25;43.48
52291;BME280;39663;45.432;28.050;2023-02-15T00:20:49;102446.68;;;6.44;43.97
52291;BME280;39663;45.432;28.050;2023-02-15T00:21:20;102449.71;;;5.96;43.93
52291;BME280;39663;45.432;28.050;2023-02-15T00:21:52;102453.31;;;6.49;44.16
52291;BME280;39663;45.432;28.050;2023-02-15T00:22:23;102449.98;;;5.13;44.44
52291;BME280;39663;45.432;28.050;2023-02-15T00:22:55;102451.66;;;5.23;45.96
52291;BME280;39663;45.432;28.050;2023-02-15T00:23:26;102448.86;;;5.52;45.41
52291;BME280;39663;45.432;28.050;2023-02-15T00:23:59;102452.04;;;5.13;44.89
52291;BME280;39663;45.432;28.050;2023-02-15T00:24:31;102452.01;;;5.19;46.05
52291;BME280;39663;45.432;28.050;2023-02-15T00:25:03;102453.02;;;5.90;45.00
52291;BME280;39663;45.432;28.050;2023-02-15T00:25:34;102450.66;;;5.58;44.31
52291;BME280;39663;45.432;28.050;2023-02-15T00:26:08;102450.38;;;5.76;45.19
52291;BME280;39663;45.432;28.050;2023-02-15T00:26:41;102454.68;;;6.29;45.21
52291;BME280;39663;45.432;28.050;2023-02-15T00:27:13;102451.92;;;5.82;43.65
52291;BME280;39663;45.432;28.050;2023-02-15T00:27:45;102450.14;;;6.16;44.52
52291;BME280;39663;45.432;28.050;2023-02-15T00:28:16;102453.08;;;6.26;44.40
52291;BME280;39663;45.432;28.050;2023-02-15T00:28:48;102448.78;;;6.21;43.59
52291;BME280;39663;45.432;28.050;2023-02-15T00:29:20;102451.54;;;6.41;44.58
52291;BME280;39663;45.432;28.050;2023-02-15T00:29:52;102451.67;;;6.50;42.83
52291;BME280;39663;45.432;28.050;2023-02-15T00:30:24;102451.25;;;6.03;44.80
52291;BME280;39663;45.432;28.050;2023-02-15T00:31:03;102453.32;;;6.56;43.68
52291;BME280;39663;45.432;28.050;2023-02-15T00:31:35;102448.94;;;6.44;44.44
52291;BME280;39663;45.432;28.050;2023-02-15T00:32:07;102446.34;;;6.74;42.74
52291;BME280;39663;45.432;28.050;2023-02-15T00:32:38;102449.26;;;6.88;44.12
52291;BME280;39663;45.432;28.050;2023-02-15T00:33:10;102447.68;;;6.29;42.83
52291;BME280;39663;45.432;28.050;2023-02-15T00:33:42;102451.96;;;6.36;44.68
52291;BME280;39663;45.432;28.050;2023-02-15T00:34:15;102449.30;;;6.49;43.31
52291;BME280;39663;45.432;28.050;2023-02-15T00:34:47;102449.14;;;5.93;43.08
52291;BME280;39663;45.432;28.050;2023-02-15T00:35:19;102450.84;;;6.46;44.14
52291;BME280;39663;45.432;28.050;2023-02-15T00:35:56;102450.01;;;6.19;44.85
52291;BME280;39663;45.432;28.050;2023-02-15T00:36:28;102447.70;;;6.33;43.31
52291;BME280;39663;45.432;28.050;2023-02-15T00:37:00;102450.26;;;6.14;45.04
52291;BME280;39663;45.432;28.050;2023-02-15T00:37:31;102448.63;;;6.61;44.56
52291;BME280;39663;45.432;28.050;2023-02-15T00:38:03;102449.68;;;6.62;43.52
52291;BME280;39663;45.432;28.050;2023-02-15T00:38:35;102450.55;;;6.54;42.54
52291;BME280;39663;45.432;28.050;2023-02-15T00:39:07;102454.27;;;6.67;42.68
52291;BME280;39663;45.432;28.050;2023-02-15T00:39:39;102451.48;;;5.15;45.99
52291;BME280;39663;45.432;28.050;2023-02-15T00:40:11;102452.88;;;5.93;44.80
52291;BME280;39663;45.432;28.050;2023-02-15T00:40:42;102450.78;;;5.80;43.70
52291;BME280;39663;45.432;28.050;2023-02-15T00:41:14;102450.95;;;6.35;44.73
52291;BME280;39663;45.432;28.050;2023-02-15T00:41:46;102452.38;;;6.12;45.24
52291;BME280;39663;45.432;28.050;2023-02-15T00:42:18;102452.91;;;6.34;43.94
52291;BME280;39663;45.432;28.050;2023-02-15T00:42:49;102454.76;;;6.69;44.65
52291;BME280;39663;45.432;28.050;2023-02-15T00:43:21;102451.35;;;6.41;42.82
52291;BME280;39663;45.432;28.050;2023-02-15T00:43:53;102450.02;;;6.74;43.05
52291;BME280;39663;45.432;28.050;2023-02-15T00:44:25;102450.82;;;6.75;42.97
52291;BME280;39663;45.432;28.050;2023-02-15T00:44:56;102452.07;;;6.69;42.27
52291;BME280;39663;45.432;28.050;2023-02-15T00:45:28;102451.52;;;6.86;43.56
52291;BME280;39663;45.432;28.050;2023-02-15T00:45:59;102450.47;;;6.80;43.30
52291;BME280;39663;45.432;28.050;2023-02-15T00:46:32;102452.28;;;5.72;43.17
52291;BME280;39663;45.432;28.050;2023-02-15T00:47:03;102452.31;;;6.56;42.92
52291;BME280;39663;45.432;28.050;2023-02-15T00:47:35;102445.84;;;6.81;43.84
52291;BME280;39663;45.432;28.050;2023-02-15T00:48:07;102450.51;;;6.83;42.90
52291;BME280;39663;45.432;28.050;2023-02-15T00:48:39;102451.75;;;6.98;42.68
52291;BME280;39663;45.432;28.050;2023-02-15T00:49:11;102450.02;;;7.30;42.26
52291;BME280;39663;45.432;28.050;2023-02-15T00:49:42;102451.45;;;7.32;43.14
52291;BME280;39663;45.432;28.050;2023-02-15T00:50:14;102458.22;;;7.34;43.18
52291;BME280;39663;45.432;28.050;2023-02-15T00:50:46;102451.96;;;7.28;42.76
52291;BME280;39663;45.432;28.050;2023-02-15T00:51:18;102449.50;;;7.24;42.53
52291;BME280;39663;45.432;28.050;2023-02-15T00:51:50;102454.56;;;7.30;42.27
52291;BME280;39663;45.432;28.050;2023-02-15T00:52:21;102449.60;;;7.14;41.80
52291;BME280;39663;45.432;28.050;2023-02-15T00:52:53;102449.57;;;7.44;42.01
52291;BME280;39663;45.432;28.050;2023-02-15T00:53:25;102452.92;;;7.34;42.24
52291;BME280;39663;45.432;28.050;2023-02-15T00:53:57;102449.94;;;7.68;40.87
52291;BME280;39663;45.432;28.050;2023-02-15T00:54:29;102450.37;;;7.12;40.93
52291;BME280;39663;45.432;28.050;2023-02-15T00:55:01;102452.88;;;6.43;41.99
52291;BME280;39663;45.432;28.050;2023-02-15T00:55:32;102453.16;;;7.46;42.78
52291;BME280;39663;45.432;28.050;2023-02-15T00:56:04;102451.70;;;7.15;41.95
52291;BME280;39663;45.432;28.050;2023-02-15T00:56:36;102455.92;;;7.06;41.63
52291;BME280;39663;45.432;28.050;2023-02-15T00:57:07;102455.12;;;6.22;43.01
52291;BME280;39663;45.432;28.050;2023-02-15T00:57:39;102451.79;;;6.82;43.13
52291;BME280;39663;45.432;28.050;2023-02-15T00:58:11;102451.38;;;6.72;41.81
52291;BME280;39663;45.432;28.050;2023-02-15T00:58:44;102455.38;;;6.32;43.37
52291;BME280;39663;45.432;28.050;2023-02-15T01:07:42;102448.96;;;6.78;43.75
52291;BME280;39663;45.432;28.050;2023-02-15T01:08:13;102447.98;;;6.75;43.58
52291;BME280;39663;45.432;28.050;2023-02-15T01:08:45;102450.62;;;6.98;44.62
52291;BME280;39663;45.432;28.050;2023-02-15T01:09:17;102446.68;;;6.96;42.48
52291;BME280;39663;45.432;28.050;2023-02-15T01:09:48;102449.47;;;6.59;44.16
52291;BME280;39663;45.432;28.050;2023-02-15T01:10:20;102450.28;;;5.88;43.74
52291;BME280;39663;45.432;28.050;2023-02-15T01:10:51;102449.14;;;5.96;44.60
52291;BME280;39663;45.432;28.050;2023-02-15T01:11:23;102452.77;;;5.91;44.32
52291;BME280;39663;45.432;28.050;2023-02-15T01:11:55;102453.56;;;6.57;45.31
52291;BME280;39663;45.432;28.050;2023-02-15T01:12:26;102451.15;;;6.75;42.15
52291;BME280;39663;45.432;28.050;2023-02-15T01:12:58;102449.90;;;6.38;44.17
52291;BME280;39663;45.432;28.050;2023-02-15T01:13:29;102453.24;;;6.67;43.15
52291;BME280;39663;45.432;28.050;2023-02-15T01:14:01;102449.67;;;6.55;43.37
52291;BME280;39663;45.432;28.050;2023-02-15T01:14:32;102451.48;;;6.11;43.55
52291;BME280;39663;45.432;28.050;2023-02-15T01:15:04;102451.40;;;6.25;43.42
52291;BME280;39663;45.432;28.050;2023-02-15T01:15:36;102451.62;;;6.36;43.78
52291;BME280;39663;45.432;28.050;2023-02-15T01:16:08;102451.63;;;5.60;43.85
52291;BME280;39663;45.432;28.050;2023-02-15T01:16:39;102449.25;;;5.58;44.00
52291;BME280;39663;45.432;28.050;2023-02-15T01:17:11;102449.51;;;5.89;44.96
52291;BME280;39663;45.432;28.050;2023-02-15T01:17:42;102446.38;;;5.76;43.38
52291;BME280;39663;45.432;28.050;2023-02-15T01:18:14;102450.38;;;5.75;45.18
52291;BME280;39663;45.432;28.050;2023-02-15T01:18:46;102445.77;;;5.98;43.41
52291;BME280;39663;45.432;28.050;2023-02-15T01:19:17;102446.15;;;6.35;43.35
52291;BME280;39663;45.432;28.050;2023-02-15T01:19:49;102446.60;;;6.66;43.52
52291;BME280;39663;45.432;28.050;2023-02-15T01:20:22;102449.17;;;6.62;43.18
52291;BME280;39663;45.432;28.050;2023-02-15T01:20:54;102442.67;;;6.10;43.43
52291;BME280;39663;45.432;28.050;2023-02-15T01:21:26;102446.65;;;6.40;43.36
52291;BME280;39663;45.432;28.050;2023-02-15T01:21:58;102447.71;;;6.81;43.94
52291;BME280;39663;45.432;28.050;2023-02-15T01:22:29;102442.65;;;5.82;43.65
52291;BME280;39663;45.432;28.050;2023-02-15T01:23:01;102447.39;;;5.88;44.88
52291;BME280;39663;45.432;28.050;2023-02-15T01:23:33;102444.10;;;5.21;45.04
52291;BME280;39663;45.432;28.050;2023-02-15T01:24:04;102447.38;;;5.77;45.03
52291;BME280;39663;45.432;28.050;2023-02-15T01:24:36;102444.54;;;5.69;43.69
52291;BME280;39663;45.432;28.050;2023-02-15T01:25:07;102442.47;;;5.62;45.05
52291;BME280;39663;45.432;28.050;2023-02-15T01:25:39;102443.01;;;6.05;45.42
52291;BME280;39663;45.432;28.050;2023-02-15T01:26:10;102444.24;;;6.39;44.71
52291;BME280;39663;45.432;28.050;2023-02-15T01:26:42;102441.46;;;6.98;43.69
52291;BME280;39663;45.432;28.050;2023-02-15T01:27:14;102443.31;;;6.43;43.76
52291;BME280;39663;45.432;28.050;2023-02-15T01:27:46;102444.89;;;6.10;42.83
52291;BME280;39663;45.432;28.050;2023-02-15T01:28:17;102444.19;;;5.86;43.52
52291;BME280;39663;45.432;28.050;2023-02-15T01:28:49;102445.43;;;6.19;43.63
52291;BME280;39663;45.432;28.050;2023-02-15T01:29:20;102444.70;;;5.34;45.86
52291;BME280;39663;45.432;28.050;2023-02-15T01:29:52;102442.04;;;5.56;45.74
52291;BME280;39663;45.432;28.050;2023-02-15T01:30:23;102444.80;;;6.08;44.00
52291;BME280;39663;45.432;28.050;2023-02-15T01:30:55;102443.91;;;6.16;44.39
52291;BME280;39663;45.432;28.050;2023-02-15T01:31:26;102442.45;;;6.30;43.48
52291;BME280;39663;45.432;28.050;2023-02-15T01:31:58;102441.26;;;6.51;43.88
52291;BME280;39663;45.432;28.050;2023-02-15T01:32:29;102442.19;;;6.96;43.56
52291;BME280;39663;45.432;28.050;2023-02-15T01:33:01;102442.78;;;6.71;43.26
52291;BME280;39663;45.432;28.050;2023-02-15T01:33:34;102443.92;;;5.42;43.47
52291;BME280;39663;45.432;28.050;2023-02-15T01:34:05;102442.16;;;5.80;44.87
52291;BME280;39663;45.432;28.050;2023-02-15T01:34:37;102443.90;;;6.54;44.47
52291;BME280;39663;45.432;28.050;2023-02-15T01:35:08;102444.26;;;6.25;43.84
52291;BME280;39663;45.432;28.050;2023-02-15T01:35:40;102441.81;;;6.54;44.16
52291;BME280;39663;45.432;28.050;2023-02-15T01:36:12;102444.54;;;6.10;43.53
52291;BME280;39663;45.432;28.050;2023-02-15T01:36:44;102439.49;;;6.26;43.64
52291;BME280;39663;45.432;28.050;2023-02-15T01:37:15;102440.87;;;6.56;43.26
52291;BME280;39663;45.432;28.050;2023-02-15T01:37:47;102440.85;;;6.73;43.23
52291;BME280;39663;45.432;28.050;2023-02-15T01:38:18;102443.43;;;5.47;43.42
52291;BME280;39663;45.432;28.050;2023-02-15T01:38:50;102438.25;;;5.86;43.54
52291;BME280;39663;45.432;28.050;2023-02-15T01:39:21;102440.48;;;5.93;44.33
52291;BME280;39663;45.432;28.050;2023-02-15T01:39:53;102440.57;;;6.50;44.45
52291;BME280;39663;45.432;28.050;2023-02-15T01:40:24;102438.89;;;6.55;42.70
52291;BME280;39663;45.432;28.050;2023-02-15T01:40:56;102432.27;;;6.82;43.42
52291;BME280;39663;45.432;28.050;2023-02-15T01:41:28;102433.10;;;6.75;42.67
52291;BME280;39663;45.432;28.050;2023-02-15T01:41:59;102433.21;;;6.76;43.34
52291;BME280;39663;45.432;28.050;2023-02-15T01:42:31;102434.14;;;6.65;43.07
52291;BME280;39663;45.432;28.050;2023-02-15T01:43:03;102435.41;;;6.73;42.59
52291;BME280;39663;45.432;28.050;2023-02-15T01:43:40;102434.82;;;6.66;43.88
52291;BME280;39663;45.432;28.050;2023-02-15T01:44:48;102433.46;;;6.82;42.87
52291;BME280;39663;45.432;28.050;2023-02-15T01:45:23;102439.31;;;6.35;43.64
52291;BME280;39663;45.432;28.050;2023-02-15T01:45:55;102438.91;;;6.16;44.42
52291;BME280;39663;45.432;28.050;2023-02-15T01:46:30;102435.61;;;6.56;43.53
52291;BME280;39663;45.432;28.050;2023-02-15T01:47:04;102439.32;;;6.18;44.24
52291;BME280;39663;45.432;28.050;2023-02-15T01:47:41;102436.24;;;6.47;42.63
52291;BME280;39663;45.432;28.050;2023-02-15T01:48:19;102439.89;;;6.38;43.58
52291;BME280;39663;45.432;28.050;2023-02-15T01:48:55;102443.99;;;5.69;43.87
52291;BME280;39663;45.432;28.050;2023-02-15T01:49:28;102444.98;;;5.76;46.14
52291;BME280;39663;45.432;28.050;2023-02-15T01:50:05;102447.22;;;5.38;44.15
52291;BME280;39663;45.432;28.050;2023-02-15T01:50:41;102445.00;;;5.82;45.44
52291;BME280;39663;45.432;28.050;2023-02-15T01:51:15;102444.76;;;6.18;44.45
52291;BME280;39663;45.432;28.050;2023-02-15T01:51:49;102448.49;;;6.24;43.26
52291;BME280;39663;45.432;28.050;2023-02-15T01:52:21;102447.00;;;5.68;43.93
52291;BME280;39663;45.432;28.050;2023-02-15T01:52:56;102450.37;;;5.08;44.63
52291;BME280;39663;45.432;28.050;2023-02-15T01:53:31;102449.20;;;5.61;46.00
52291;BME280;39663;45.432;28.050;2023-02-15T01:54:11;102451.58;;;6.07;44.64
52291;BME280;39663;45.432;28.050;2023-02-15T01:54:47;102457.93;;;6.32;44.17
52291;BME280;39663;45.432;28.050;2023-02-15T01:55:19;102452.46;;;5.66;45.13
52291;BME280;39663;45.432;28.050;2023-02-15T01:55:57;102454.75;;;5.90;43.73
52291;BME280;39663;45.432;28.050;2023-02-15T01:56:34;102451.64;;;6.04;43.97
52291;BME280;39663;45.432;28.050;2023-02-15T01:57:10;102449.05;;;5.91;44.88
52291;BME280;39663;45.432;28.050;2023-02-15T01:57:44;102454.27;;;5.86;43.81
52291;BME280;39663;45.432;28.050;2023-02-15T01:58:17;102453.80;;;6.14;45.30
52291;BME280;39663;45.432;28.050;2023-02-15T01:58:49;102454.64;;;6.67;44.75
52291;BME280;39663;45.432;28.050;2023-02-15T01:59:23;102456.27;;;6.49;43.64
52291;BME280;39663;45.432;28.050;2023-02-15T01:59:58;102451.01;;;6.61;43.50
52291;BME280;39663;45.432;28.050;2023-02-15T02:00:32;102448.20;;;6.27;44.16
52291;BME280;39663;45.432;28.050;2023-02-15T02:01:19;102455.87;;;6.48;43.88
52291;BME280;39663;45.432;28.050;2023-02-15T02:01:52;102448.40;;;6.78;43.86
52291;BME280;39663;45.432;28.050;2023-02-15T02:02:27;102451.34;;;6.61;42.66
52291;BME280;39663;45.432;28.050;2023-02-15T02:02:59;102450.83;;;6.86;43.97
52291;BME280;39663;45.432;28.050;2023-02-15T02:03:38;102449.49;;;7.29;43.32
52291;BME280;39663;45.432;28.050;2023-02-15T02:04:17;102450.87;;;7.21;41.94
52291;BME280;39663;45.432;28.050;2023-02-15T02:04:51;102451.93;;;7.29;42.25
52291;BME280;39663;45.432;28.050;2023-02-15T02:05:23;102452.66;;;7.31;42.53
52291;BME280;39663;45.432;28.050;2023-02-15T02:05:55;102450.32;;;6.69;41.45
52291;BME280;39663;45.432;28.050;2023-02-15T02:06:27;102450.17;;;7.04;43.91
52291;BME280;39663;45.432;28.050;2023-02-15T02:06:59;102449.16;;;7.14;42.52
52291;BME280;39663;45.432;28.050;2023-02-15T02:07:33;102447.64;;;7.11;42.89
52291;BME280;39663;45.432;28.050;2023-02-15T02:08:07;102452.14;;;7.37;42.46
52291;BME280;39663;45.432;28.050;2023-02-15T02:08:40;102448.11;;;7.00;41.96
52291;BME280;39663;45.432;28.050;2023-02-15T02:09:12;102448.42;;;7.19;42.25
52291;BME280;39663;45.432;28.050;2023-02-15T02:09:45;102450.41;;;7.37;41.83
52291;BME280;39663;45.432;28.050;2023-02-15T02:10:19;102453.02;;;6.29;42.41
52291;BME280;39663;45.432;28.050;2023-02-15T02:10:51;102452.57;;;6.68;44.02
52291;BME280;39663;45.432;28.050;2023-02-15T02:11:22;102453.21;;;7.16;42.35
52291;BME280;39663;45.432;28.050;2023-02-15T02:11:54;102453.03;;;7.04;42.62
52291;BME280;39663;45.432;28.050;2023-02-15T02:12:26;102454.72;;;6.50;42.36
52291;BME280;39663;45.432;28.050;2023-02-15T02:13:00;102451.94;;;6.06;42.06
52291;BME280;39663;45.432;28.050;2023-02-15T02:13:33;102456.70;;;6.45;43.66
52291;BME280;39663;45.432;28.050;2023-02-15T02:14:04;102458.83;;;6.48;44.95
52291;BME280;39663;45.432;28.050;2023-02-15T02:14:36;102458.49;;;6.69;43.07
52291;BME280;39663;45.432;28.050;2023-02-15T02:15:09;102455.25;;;6.74;42.27
52291;BME280;39663;45.432;28.050;2023-02-15T02:15:47;102460.07;;;5.77;42.27
52291;BME280;39663;45.432;28.050;2023-02-15T02:16:27;102457.42;;;5.93;43.56
52291;BME280;39663;45.432;28.050;2023-02-15T02:17:09;102455.39;;;6.52;43.49
52291;BME280;39663;45.432;28.050;2023-02-15T02:17:51;102457.99;;;6.82;43.41
52291;BME280;39663;45.432;28.050;2023-02-15T02:18:36;102457.63;;;6.10;42.97
52291;BME280;39663;45.432;28.050;2023-02-15T02:19:34;102452.99;;;5.44;44.24
52291;BME280;39663;45.432;28.050;2023-02-15T02:21:01;102461.66;;;6.33;43.86
52291;BME280;39663;45.432;28.050;2023-02-15T02:22:07;102456.90;;;6.73;44.57
52291;BME280;39663;45.432;28.050;2023-02-15T02:23:19;102452.75;;;6.24;41.89
52291;BME280;39663;45.432;28.050;2023-02-15T02:24:10;102463.97;;;5.26;44.11
52291;BME280;39663;45.432;28.050;2023-02-15T02:25:01;102454.98;;;5.01;44.84
52291;BME280;39663;45.432;28.050;2023-02-15T02:25:56;102453.23;;;5.65;44.32
52291;BME280;39663;45.432;28.050;2023-02-15T02:26:58;102456.99;;;5.81;44.31
52291;BME280;39663;45.432;28.050;2023-02-15T02:27:38;102452.79;;;6.05;43.40
52291;BME280;39663;45.432;28.050;2023-02-15T02:28:26;102453.93;;;6.34;44.35
52291;BME280;39663;45.432;28.050;2023-02-15T02:30:05;102456.59;;;6.57;43.54
52291;BME280;39663;45.432;28.050;2023-02-15T02:31:30;102456.13;;;6.17;43.25
52291;BME280;39663;45.432;28.050;2023-02-15T02:33:28;102455.48;;;5.63;44.36
52291;BME280;39663;45.432;28.050;2023-02-15T02:34:05;102456.18;;;5.82;43.54
52291;BME280;39663;45.432;28.050;2023-02-15T02:34:44;102458.60;;;5.46;44.37
52291;BME280;39663;45.432;28.050;2023-02-15T02:35:23;102459.66;;;5.88;43.66
52291;BME280;39663;45.432;28.050;2023-02-15T02:36:06;102459.32;;;6.21;44.08
52291;BME280;39663;45.432;28.050;2023-02-15T02:36:44;102463.11;;;6.35;44.11
52291;BME280;39663;45.432;28.050;2023-02-15T02:37:28;102466.59;;;6.47;43.98
52291;BME280;39663;45.432;28.050;2023-02-15T02:38:06;102461.60;;;6.65;43.25
52291;BME280;39663;45.432;28.050;2023-02-15T02:38:48;102468.01;;;6.12;45.28
52291;BME280;39663;45.432;28.050;2023-02-15T02:39:33;102466.48;;;6.48;44.05
52291;BME280;39663;45.432;28.050;2023-02-15T02:40:13;102464.55;;;6.38;43.12
52291;BME280;39663;45.432;28.050;2023-02-15T02:40:54;102467.97;;;6.66;42.17
52291;BME280;39663;45.432;28.050;2023-02-15T02:41:32;102464.89;;;7.11;44.03
52291;BME280;39663;45.432;28.050;2023-02-15T02:42:12;102465.14;;;6.83;42.69
52291;BME280;39663;45.432;28.050;2023-02-15T02:42:51;102469.82;;;6.12;42.21
52291;BME280;39663;45.432;28.050;2023-02-15T02:43:31;102473.20;;;5.67;42.50
52291;BME280;39663;45.432;28.050;2023-02-15T02:44:10;102467.95;;;6.09;43.39
52291;BME280;39663;45.432;28.050;2023-02-15T02:44:46;102470.93;;;6.00;43.96
52291;BME280;39663;45.432;28.050;2023-02-15T02:45:24;102474.40;;;6.15;42.37
52291;BME280;39663;45.432;28.050;2023-02-15T02:45:59;102473.34;;;6.85;43.69
52291;BME280;39663;45.432;28.050;2023-02-15T02:46:35;102473.20;;;6.29;43.54
52291;BME280;39663;45.432;28.050;2023-02-15T02:47:12;102469.65;;;6.64;43.25
52291;BME280;39663;45.432;28.050;2023-02-15T02:47:47;102480.61;;;6.50;41.70
52291;BME280;39663;45.432;28.050;2023-02-15T02:48:24;102471.72;;;6.40;42.68
52291;BME280;39663;45.432;28.050;2023-02-15T02:48:57;102475.95;;;6.80;44.27
52291;BME280;39663;45.432;28.050;2023-02-15T02:49:31;102476.57;;;6.69;42.81
52291;BME280;39663;45.432;28.050;2023-02-15T02:50:08;102469.53;;;6.71;43.00
52291;BME280;39663;45.432;28.050;2023-02-15T02:50:41;102480.13;;;6.72;42.09
52291;BME280;39663;45.432;28.050;2023-02-15T02:51:12;102473.23;;;6.09;42.93
52291;BME280;39663;45.432;28.050;2023-02-15T02:51:44;102478.05;;;6.27;42.57
52291;BME280;39663;45.432;28.050;2023-02-15T02:52:49;102478.63;;;5.19;43.09
52291;BME280;39663;45.432;28.050;2023-02-15T02:53:20;102479.63;;;5.14;43.68
52291;BME280;39663;45.432;28.050;2023-02-15T02:53:54;102482.53;;;5.72;43.24
52291;BME280;39663;45.432;28.050;2023-02-15T02:54:27;102483.12;;;5.69;45.27
52291;BME280;39663;45.432;28.050;2023-02-15T02:54:59;102484.30;;;4.85;43.89
52291;BME280;39663;45.432;28.050;2023-02-15T02:55:35;102494.73;;;4.96;44.36
52291;BME280;39663;45.432;28.050;2023-02-15T02:56:16;102487.17;;;4.87;44.61
52291;BME280;39663;45.432;28.050;2023-02-15T02:56:50;102485.39;;;5.09;44.65
52291;BME280;39663;45.432;28.050;2023-02-15T02:57:24;102489.90;;;5.47;44.98
52291;BME280;39663;45.432;28.050;2023-02-15T02:58:00;102484.63;;;5.68;44.30
52291;BME280;39663;45.432;28.050;2023-02-15T02:58:38;102486.51;;;5.44;45.11
52291;BME280;39663;45.432;28.050;2023-02-15T02:59:15;102486.88;;;5.74;44.97
52291;BME280;39663;45.432;28.050;2023-02-15T02:59:49;102488.12;;;6.22;43.57
52291;BME280;39663;45.432;28.050;2023-02-15T03:00:23;102482.62;;;5.73;44.33
52291;BME280;39663;45.432;28.050;2023-02-15T03:01:00;102482.79;;;5.92;44.35
52291;BME280;39663;45.432;28.050;2023-02-15T03:01:38;102489.26;;;5.17;44.11
52291;BME280;39663;45.432;28.050;2023-02-15T03:02:13;102483.18;;;5.62;43.80
52291;BME280;39663;45.432;28.050;2023-02-15T03:02:49;102489.09;;;6.11;45.25
52291;BME280;39663;45.432;28.050;2023-02-15T03:03:27;102486.52;;;5.96;43.18
52291;BME280;39663;45.432;28.050;2023-02-15T03:04:03;102485.41;;;5.83;44.24
52291;BME280;39663;45.432;28.050;2023-02-15T03:04:40;102490.73;;;6.06;43.41
52291;BME280;39663;45.432;28.050;2023-02-15T03:05:16;102486.43;;;6.05;44.54
52291;BME280;39663;45.432;28.050;2023-02-15T03:05:52;102486.77;;;5.84;43.30
52291;BME280;39663;45.432;28.050;2023-02-15T03:06:29;102490.89;;;6.32;43.52
52291;BME280;39663;45.432;28.050;2023-02-15T03:07:06;102489.56;;;6.14;43.57
52291;BME280;39663;45.432;28.050;2023-02-15T03:07:39;102490.03;;;5.77;43.81
52291;BME280;39663;45.432;28.050;2023-02-15T03:08:14;102491.75;;;6.04;43.21
52291;BME280;39663;45.432;28.050;2023-02-15T03:08:50;102484.92;;;5.76;43.14
52291;BME280;39663;45.432;28.050;2023-02-15T03:09:25;102490.39;;;5.71;44.36
52291;BME280;39663;45.432;28.050;2023-02-15T03:10:00;102491.35;;;6.06;44.05
52291;BME280;39663;45.432;28.050;2023-02-15T03:10:34;102491.47;;;6.28;43.31
52291;BME280;39663;45.432;28.050;2023-02-15T03:11:06;102488.93;;;5.98;43.57
52291;BME280;39663;45.432;28.050;2023-02-15T03:11:38;102491.53;;;6.20;44.50
52291;BME280;39663;45.432;28.050;2023-02-15T03:12:13;102489.04;;;6.53;43.94